La Molina, Catalunya

latitud = 42° 19' 57''N | longitud = 001° 56' 22''E
1703 metros sobre el nivel del mar | datos mensuales

Fecha, hora, temperatura, viento dirección y velocidad, humedad y presión.

  • 25-09-2017 00:00:00 | 10.20°C | 0 |0.00 km/h | 83.00% | 836.00 hPa
  • 24-09-2017 23:00:00 | 10.40°C | 0 |0.00 km/h | 84.00% | 836.20 hPa
  • 24-09-2017 22:00:00 | 11.60°C | 0 |0.00 km/h | 78.00% | 836.20 hPa
  • 24-09-2017 21:00:00 | 13.70°C | 0 |0.00 km/h | 69.00% | 835.90 hPa
  • 24-09-2017 20:00:00 | 14.20°C | 0 |0.00 km/h | 68.00% | 835.60 hPa
  • 24-09-2017 19:00:00 | 16.00°C | 0 |0.00 km/h | 62.00% | 835.50 hPa
  • 24-09-2017 18:00:00 | 17.30°C | 0 |0.00 km/h | 61.00% | 835.40 hPa
  • 24-09-2017 17:00:00 | 18.10°C | 0 |0.00 km/h | 52.00% | 835.50 hPa
  • 24-09-2017 16:00:00 | 20.10°C | 0 |0.00 km/h | 30.00% | 835.60 hPa
  • 24-09-2017 15:00:00 | 19.50°C | 0 |0.00 km/h | 29.00% | 835.80 hPa
  • 24-09-2017 14:00:00 | 18.70°C | 0 |0.00 km/h | 34.00% | 836.00 hPa
  • 24-09-2017 13:00:00 | 17.60°C | 0 |0.00 km/h | 40.00% | 836.10 hPa
  • 24-09-2017 12:00:00 | 17.20°C | 0 |0.00 km/h | 30.00% | 836.20 hPa
  • 24-09-2017 11:00:00 | 14.80°C | 0 |0.00 km/h | 44.00% | 836.10 hPa
  • 24-09-2017 10:00:00 | 10.70°C | 0 |0.00 km/h | 61.00% | 836.00 hPa
  • 24-09-2017 09:00:00 | 7.90°C | 0 |0.00 km/h | 70.00% | 835.50 hPa
  • 24-09-2017 08:00:00 | 7.00°C | 0 |0.00 km/h | 77.00% | 835.60 hPa
  • 24-09-2017 07:00:00 | 7.10°C | 0 |0.00 km/h | 87.00% | 835.60 hPa
  • 24-09-2017 06:00:00 | 6.90°C | 0 |0.00 km/h | 86.00% | 835.60 hPa
  • 24-09-2017 05:00:00 | 7.20°C | 0 |0.00 km/h | 83.00% | 835.40 hPa
  • 24-09-2017 04:00:00 | 7.10°C | 0 |0.00 km/h | 81.00% | 835.60 hPa
  • 24-09-2017 03:00:00 | 7.60°C | 0 |0.00 km/h | 80.00% | 836.00 hPa
  • 24-09-2017 02:00:00 | 7.90°C | 0 |0.00 km/h | 82.00% | 836.10 hPa
  • 24-09-2017 01:00:00 | 7.90°C | 0 |0.00 km/h | 85.00% | 836.10 hPa